createdAt,value
2018-01-03T00:00:27.272Z,0
2018-01-03T00:01:27.288Z,0
2018-01-03T00:02:27.264Z,0
2018-01-03T00:03:27.290Z,0
2018-01-03T00:04:27.266Z,0
2018-01-03T00:05:27.270Z,0
2018-01-03T00:06:27.291Z,0
2018-01-03T00:07:27.270Z,0
2018-01-03T00:08:27.294Z,0
2018-01-03T00:09:27.279Z,0
2018-01-03T00:10:27.295Z,0
2018-01-03T00:11:27.285Z,0
2018-01-03T00:12:27.279Z,0
2018-01-03T00:13:27.301Z,0
2018-01-03T00:14:27.285Z,0
2018-01-03T00:15:27.284Z,0
2018-01-03T00:16:27.290Z,0
2018-01-03T00:17:27.281Z,0
2018-01-03T00:18:27.580Z,0
2018-01-03T00:19:27.286Z,0
2018-01-03T00:20:27.286Z,0
2018-01-03T00:21:27.293Z,0
2018-01-03T00:22:27.286Z,0
2018-01-03T00:23:27.316Z,0
2018-01-03T00:24:27.287Z,0
2018-01-03T00:25:27.286Z,0
2018-01-03T00:26:27.290Z,0
2018-01-03T00:27:27.291Z,0
2018-01-03T00:28:27.325Z,0
2018-01-03T00:29:27.297Z,0
2018-01-03T00:30:27.305Z,0
2018-01-03T00:31:27.292Z,0
2018-01-03T00:32:27.291Z,0
2018-01-03T00:33:27.329Z,0
2018-01-03T00:34:27.297Z,0
2018-01-03T00:35:27.398Z,0
2018-01-03T00:36:27.330Z,0
2018-01-03T00:37:27.310Z,0
2018-01-03T00:38:27.385Z,0
2018-01-03T00:39:27.310Z,0
2018-01-03T00:40:27.317Z,0
2018-01-03T00:41:27.312Z,0
2018-01-03T00:42:27.307Z,0
2018-01-03T00:43:27.329Z,0
2018-01-03T00:44:27.306Z,0
2018-01-03T00:45:27.322Z,0
2018-01-03T00:46:27.310Z,0
2018-01-03T00:47:27.320Z,0
2018-01-03T00:48:27.336Z,0
2018-01-03T00:49:27.313Z,0
2018-01-03T00:50:27.397Z,0
2018-01-03T00:51:27.411Z,0
2018-01-03T00:52:27.330Z,0
2018-01-03T00:53:27.320Z,0
2018-01-03T00:54:27.349Z,0
2018-01-03T00:55:27.327Z,0
2018-01-03T00:56:27.328Z,0
2018-01-03T00:57:27.323Z,0
2018-01-03T00:58:27.332Z,0
2018-01-03T00:59:27.352Z,0
2018-01-03T01:00:27.323Z,0
2018-01-03T01:01:27.370Z,0
2018-01-03T01:02:27.325Z,0
2018-01-03T01:03:27.333Z,0
2018-01-03T01:04:27.359Z,0
2018-01-03T01:05:27.397Z,0
2018-01-03T01:06:27.330Z,0
2018-01-03T01:07:27.322Z,0
2018-01-03T01:08:27.368Z,0
2018-01-03T01:09:27.357Z,0
2018-01-03T01:10:27.334Z,0
2018-01-03T01:11:27.330Z,0
2018-01-03T01:12:27.332Z,0
2018-01-03T01:13:27.346Z,0
2018-01-03T01:14:27.366Z,0
2018-01-03T01:15:27.336Z,0
2018-01-03T01:16:27.340Z,0
2018-01-03T01:17:27.461Z,0
2018-01-03T01:18:27.339Z,0
2018-01-03T01:19:27.366Z,0
2018-01-03T01:20:27.347Z,0
2018-01-03T01:21:27.342Z,0
2018-01-03T01:22:27.364Z,0
2018-01-03T01:23:27.349Z,0
2018-01-03T01:24:27.379Z,0
2018-01-03T01:25:27.345Z,0
2018-01-03T01:26:27.350Z,0
2018-01-03T01:27:27.353Z,0
2018-01-03T01:28:27.399Z,0
2018-01-03T01:29:27.384Z,0
2018-01-03T01:30:27.400Z,0
2018-01-03T01:31:27.359Z,0
2018-01-03T01:32:27.350Z,0
2018-01-03T01:33:27.365Z,0
2018-01-03T01:34:27.380Z,0
2018-01-03T01:35:27.358Z,0
2018-01-03T01:36:27.354Z,0
2018-01-03T01:37:27.351Z,0
2018-01-03T01:38:27.364Z,0
2018-01-03T01:39:27.396Z,0
2018-01-03T01:40:27.352Z,0
2018-01-03T01:41:27.375Z,0
2018-01-03T01:42:27.373Z,0
2018-01-03T01:43:27.371Z,0
2018-01-03T01:44:27.388Z,0
2018-01-03T01:45:27.367Z,0
2018-01-03T01:46:27.369Z,0
2018-01-03T01:47:27.378Z,0
2018-01-03T01:48:27.372Z,0
2018-01-03T01:49:27.373Z,0
2018-01-03T01:50:27.368Z,0
2018-01-03T01:51:27.372Z,0
2018-01-03T01:52:27.374Z,0
2018-01-03T01:53:27.372Z,0
2018-01-03T01:54:27.379Z,0
2018-01-03T01:55:27.380Z,0
2018-01-03T01:56:27.380Z,0
2018-01-03T01:57:27.375Z,0
2018-01-03T01:58:27.388Z,0
2018-01-03T01:59:27.385Z,0
2018-01-03T02:00:27.378Z,0
2018-01-03T02:01:27.445Z,0
2018-01-03T02:02:27.381Z,0
2018-01-03T02:03:27.382Z,0
2018-01-03T02:04:27.381Z,0
2018-01-03T02:05:27.405Z,0
2018-01-03T02:06:27.395Z,0
2018-01-03T02:07:27.387Z,0
2018-01-03T02:08:27.381Z,0
2018-01-03T02:09:27.409Z,0
2018-01-03T02:10:27.391Z,0
2018-01-03T02:11:27.389Z,0
2018-01-03T02:12:27.395Z,0
2018-01-03T02:13:27.390Z,0
2018-01-03T02:14:27.427Z,0
2018-01-03T02:15:27.390Z,0
2018-01-03T02:16:27.403Z,0
2018-01-03T02:17:27.401Z,0
2018-01-03T02:18:27.395Z,0
2018-01-03T02:19:27.437Z,0
2018-01-03T02:20:27.406Z,0
2018-01-03T02:21:27.397Z,0
2018-01-03T02:22:27.447Z,0
2018-01-03T02:23:27.399Z,0
2018-01-03T02:24:27.437Z,0
2018-01-03T02:25:27.403Z,0
2018-01-03T02:26:27.405Z,0
2018-01-03T02:27:27.415Z,0
2018-01-03T02:28:27.415Z,0
2018-01-03T02:29:27.429Z,0
2018-01-03T02:30:27.413Z,0
2018-01-03T02:31:27.409Z,0
2018-01-03T02:32:27.420Z,0
2018-01-03T02:33:27.410Z,0
2018-01-03T02:34:27.431Z,0
2018-01-03T02:35:27.416Z,0
2018-01-03T02:36:27.423Z,0
2018-01-03T02:37:27.422Z,0
2018-01-03T02:38:27.422Z,0
2018-01-03T02:39:27.442Z,0
2018-01-03T02:40:27.491Z,0
2018-01-03T02:41:27.434Z,0
2018-01-03T02:42:27.448Z,0
2018-01-03T02:43:43.771Z,0
2018-01-03T02:44:27.461Z,0
2018-01-03T02:45:27.450Z,0
2018-01-03T02:46:27.531Z,0
2018-01-03T02:47:27.423Z,0
2018-01-03T02:48:27.436Z,0
2018-01-03T02:49:27.448Z,0
2018-01-03T02:50:27.425Z,0
2018-01-03T02:51:27.425Z,0
2018-01-03T02:52:27.440Z,1
2018-01-03T02:53:27.444Z,1
2018-01-03T02:54:27.476Z,2
2018-01-03T02:55:27.488Z,3
2018-01-03T02:56:27.426Z,3
2018-01-03T02:57:27.437Z,4
2018-01-03T02:58:27.435Z,5
2018-01-03T02:59:27.440Z,5
2018-01-03T03:00:27.475Z,7
2018-01-03T03:01:31.406Z,7
2018-01-03T03:02:27.605Z,7
2018-01-03T03:03:27.442Z,7
2018-01-03T03:04:27.433Z,7
2018-01-03T03:05:27.462Z,7
2018-01-03T03:06:27.443Z,7
2018-01-03T03:07:27.444Z,7
2018-01-03T03:08:29.198Z,7
2018-01-03T03:09:27.441Z,7
2018-01-03T03:10:27.483Z,7
2018-01-03T03:11:27.450Z,7
2018-01-03T03:12:27.443Z,7
2018-01-03T03:13:27.441Z,8
2018-01-03T03:14:27.443Z,8
2018-01-03T03:15:27.471Z,8
2018-01-03T03:16:27.456Z,8
2018-01-03T03:17:27.448Z,8
2018-01-03T03:18:27.451Z,8
2018-01-03T03:19:27.453Z,8
2018-01-03T03:20:27.494Z,8
2018-01-03T03:21:27.463Z,8
2018-01-03T03:22:27.458Z,8
2018-01-03T03:23:27.466Z,8
2018-01-03T03:24:27.457Z,8
2018-01-03T03:25:27.480Z,8
2018-01-03T03:26:27.475Z,8
2018-01-03T03:27:27.457Z,8
2018-01-03T03:28:27.460Z,9
2018-01-03T03:29:27.467Z,9
2018-01-03T03:30:27.493Z,9
2018-01-03T03:31:27.466Z,9
2018-01-03T03:32:27.494Z,9
2018-01-03T03:33:27.488Z,9
2018-01-03T03:34:27.485Z,9
2018-01-03T03:35:27.486Z,9
2018-01-03T03:36:27.474Z,9
2018-01-03T03:37:32.474Z,9
2018-01-03T03:38:27.477Z,9
2018-01-03T03:39:27.474Z,9
2018-01-03T03:40:27.493Z,9
2018-01-03T03:41:27.483Z,9
2018-01-03T03:42:27.471Z,9
2018-01-03T03:43:27.472Z,9
2018-01-03T03:44:27.476Z,9
2018-01-03T03:45:27.487Z,9
2018-01-03T03:46:27.480Z,9
2018-01-03T03:47:27.480Z,9
2018-01-03T03:48:27.474Z,9
2018-01-03T03:49:27.493Z,9
2018-01-03T03:50:27.485Z,9
2018-01-03T03:51:27.479Z,9
2018-01-03T03:52:27.487Z,9
2018-01-03T03:53:27.482Z,9
2018-01-03T03:54:27.488Z,9
2018-01-03T03:55:27.522Z,9
2018-01-03T03:56:27.490Z,9
2018-01-03T03:57:27.486Z,9
2018-01-03T03:58:27.492Z,9
2018-01-03T03:59:27.485Z,9
2018-01-03T04:00:27.501Z,9
2018-01-03T04:01:27.488Z,9
2018-01-03T04:02:27.496Z,9
2018-01-03T04:03:27.501Z,9
2018-01-03T04:04:27.496Z,9
2018-01-03T04:05:27.516Z,9
2018-01-03T04:06:27.510Z,9
2018-01-03T04:07:27.500Z,9
2018-01-03T04:08:27.492Z,9
2018-01-03T04:09:27.492Z,9
2018-01-03T04:10:27.497Z,9
2018-01-03T04:11:27.501Z,9
2018-01-03T04:12:27.504Z,9
2018-01-03T04:13:27.507Z,9
2018-01-03T04:14:27.508Z,9
2018-01-03T04:15:27.527Z,9
2018-01-03T04:16:27.563Z,9
2018-01-03T04:17:27.514Z,9
2018-01-03T04:18:27.524Z,9
2018-01-03T04:19:27.518Z,9
2018-01-03T04:20:27.541Z,9
2018-01-03T04:21:27.520Z,9
2018-01-03T04:22:27.513Z,9
2018-01-03T04:23:27.517Z,9
2018-01-03T04:24:27.510Z,9
2018-01-03T04:25:27.536Z,9
2018-01-03T04:26:27.538Z,9
2018-01-03T04:27:27.514Z,9
2018-01-03T04:28:27.521Z,9
2018-01-03T04:29:27.533Z,9
2018-01-03T04:30:27.542Z,9
2018-01-03T04:31:27.526Z,9
2018-01-03T04:32:27.522Z,9
2018-01-03T04:33:27.515Z,9
2018-01-03T04:34:27.529Z,9
2018-01-03T04:35:27.554Z,9
2018-01-03T04:36:27.527Z,9
2018-01-03T04:37:27.613Z,9
2018-01-03T04:38:27.535Z,9
2018-01-03T04:39:27.533Z,9
2018-01-03T04:40:27.554Z,9
2018-01-03T04:41:27.534Z,9
2018-01-03T04:42:27.531Z,9
2018-01-03T04:43:27.529Z,9
2018-01-03T04:44:27.532Z,9
2018-01-03T04:45:27.578Z,9
2018-01-03T04:46:27.547Z,9
2018-01-03T04:47:27.560Z,9
2018-01-03T04:48:27.533Z,9
2018-01-03T04:49:27.540Z,9
2018-01-03T04:50:27.568Z,9
2018-01-03T04:51:27.540Z,9
2018-01-03T04:52:27.556Z,9
2018-01-03T04:53:27.533Z,9
2018-01-03T04:54:27.542Z,9
2018-01-03T04:55:27.588Z,9
2018-01-03T04:56:27.544Z,9
2018-01-03T04:57:27.542Z,9
2018-01-03T04:58:27.566Z,9
2018-01-03T04:59:27.547Z,9
2018-01-03T05:00:27.568Z,9
2018-01-03T05:01:27.548Z,0
2018-01-03T05:02:27.554Z,0
2018-01-03T05:03:27.547Z,0
2018-01-03T05:04:27.548Z,0
2018-01-03T05:05:27.574Z,0
2018-01-03T05:06:27.594Z,0
2018-01-03T05:07:27.562Z,0
2018-01-03T05:08:27.555Z,0
2018-01-03T05:09:27.652Z,0
2018-01-03T05:10:27.585Z,0
2018-01-03T05:11:27.753Z,0
2018-01-03T05:12:27.560Z,0
2018-01-03T05:13:27.558Z,0
2018-01-03T05:14:27.562Z,0
2018-01-03T05:15:27.576Z,0
2018-01-03T05:16:27.570Z,0
2018-01-03T05:17:27.581Z,0
2018-01-03T05:18:29.496Z,0
2018-01-03T05:19:32.959Z,0
2018-01-03T05:20:27.585Z,0
2018-01-03T05:21:27.566Z,0
2018-01-03T05:22:27.574Z,0
2018-01-03T05:23:27.570Z,0
2018-01-03T05:24:27.571Z,0
2018-01-03T05:25:27.601Z,0
2018-01-03T05:26:27.572Z,0
2018-01-03T05:27:27.620Z,0
2018-01-03T05:28:31.281Z,0
2018-01-03T05:29:27.568Z,0
2018-01-03T05:30:27.876Z,0
2018-01-03T05:31:27.574Z,0
2018-01-03T05:32:27.590Z,0
2018-01-03T05:33:36.824Z,0
2018-01-03T05:34:27.573Z,0
2018-01-03T05:35:27.583Z,0
2018-01-03T05:36:27.587Z,0
2018-01-03T05:37:27.590Z,0
2018-01-03T05:38:27.582Z,0
2018-01-03T05:39:27.601Z,0
2018-01-03T05:40:27.610Z,0
2018-01-03T05:41:27.588Z,0
2018-01-03T05:42:27.595Z,0
2018-01-03T05:43:27.596Z,0
2018-01-03T05:44:27.589Z,0
2018-01-03T05:45:27.594Z,0
2018-01-03T05:46:27.604Z,0
2018-01-03T05:47:27.594Z,0
2018-01-03T05:48:27.593Z,0
2018-01-03T05:49:27.596Z,0
2018-01-03T05:50:27.593Z,0
2018-01-03T05:51:27.593Z,0
2018-01-03T05:52:27.594Z,0
2018-01-03T05:53:27.604Z,0
2018-01-03T05:54:27.596Z,0
2018-01-03T05:55:27.610Z,0
2018-01-03T05:56:27.604Z,0
2018-01-03T05:57:27.604Z,0
2018-01-03T05:58:27.596Z,0
2018-01-03T05:59:27.630Z,0
2018-01-03T06:00:27.605Z,0
2018-01-03T06:01:27.620Z,0
2018-01-03T06:02:27.604Z,0
2018-01-03T06:03:27.613Z,0
2018-01-03T06:04:27.614Z,0
2018-01-03T06:05:27.614Z,0
2018-01-03T06:06:27.633Z,0
2018-01-03T06:07:27.609Z,0
2018-01-03T06:08:27.610Z,0
2018-01-03T06:09:27.605Z,0
2018-01-03T06:10:27.619Z,0
2018-01-03T06:11:27.635Z,0
2018-01-03T06:12:27.618Z,0
2018-01-03T06:13:27.614Z,0
2018-01-03T06:14:27.641Z,0
2018-01-03T06:15:27.724Z,0
2018-01-03T06:16:27.657Z,0
2018-01-03T06:17:27.623Z,0
2018-01-03T06:18:27.623Z,0
2018-01-03T06:19:27.621Z,0
2018-01-03T06:20:27.628Z,0
2018-01-03T06:21:27.649Z,0
2018-01-03T06:22:27.630Z,0
2018-01-03T06:23:27.625Z,0
2018-01-03T06:24:27.630Z,0
2018-01-03T06:25:27.631Z,0
2018-01-03T06:26:27.998Z,0
2018-01-03T06:27:27.814Z,0
2018-01-03T06:28:27.634Z,0
2018-01-03T06:29:27.637Z,0
2018-01-03T06:30:27.635Z,0
2018-01-03T06:31:27.651Z,0
2018-01-03T06:32:27.629Z,0
2018-01-03T06:33:27.632Z,0
2018-01-03T06:34:27.649Z,0
2018-01-03T06:35:27.687Z,0
2018-01-03T06:36:35.598Z,0
2018-01-03T06:37:27.638Z,0
2018-01-03T06:38:27.638Z,0
2018-01-03T06:39:27.961Z,0
2018-01-03T06:40:27.951Z,0
2018-01-03T06:41:27.669Z,0
2018-01-03T06:42:27.648Z,0
2018-01-03T06:43:27.643Z,0
2018-01-03T06:44:28.310Z,0
2018-01-03T06:45:32.510Z,0
2018-01-03T06:46:31.589Z,0
2018-01-03T06:47:27.879Z,0
2018-01-03T06:48:27.655Z,0
2018-01-03T06:49:27.660Z,0
2018-01-03T06:50:27.648Z,0
2018-01-03T06:51:27.676Z,0
2018-01-03T06:52:27.702Z,0
2018-01-03T06:53:27.650Z,0
2018-01-03T06:54:27.651Z,0
2018-01-03T06:55:27.673Z,0
2018-01-03T06:56:27.697Z,0
2018-01-03T06:57:40.395Z,0
2018-01-03T06:58:27.656Z,0
2018-01-03T06:59:27.658Z,0
2018-01-03T07:00:27.657Z,0
2018-01-03T07:01:27.699Z,0
2018-01-03T07:02:27.668Z,0
2018-01-03T07:03:27.661Z,0
2018-01-03T07:04:27.654Z,0
2018-01-03T07:05:27.751Z,0
2018-01-03T07:06:28.224Z,0
2018-01-03T07:07:27.665Z,0
2018-01-03T07:08:27.808Z,0
2018-01-03T07:09:27.664Z,0
2018-01-03T07:10:27.672Z,0
2018-01-03T07:11:27.672Z,0
2018-01-03T07:12:27.672Z,0
2018-01-03T07:13:27.679Z,0
2018-01-03T07:14:27.678Z,0
2018-01-03T07:15:27.681Z,0
2018-01-03T07:16:27.726Z,0
2018-01-03T07:17:27.674Z,0
2018-01-03T07:18:27.673Z,0
2018-01-03T07:19:27.677Z,0
2018-01-03T07:20:27.673Z,0
2018-01-03T07:21:27.702Z,0
2018-01-03T07:22:27.673Z,0
2018-01-03T07:23:27.678Z,0
2018-01-03T07:24:27.687Z,0
2018-01-03T07:25:27.684Z,0
2018-01-03T07:26:27.719Z,0
2018-01-03T07:27:27.688Z,0
2018-01-03T07:28:27.684Z,0
2018-01-03T07:29:27.687Z,0
2018-01-03T07:30:27.682Z,0
2018-01-03T07:31:27.713Z,0
2018-01-03T07:32:27.735Z,0
2018-01-03T07:33:27.689Z,0
2018-01-03T07:34:27.705Z,0
2018-01-03T07:35:27.689Z,0
2018-01-03T07:36:27.686Z,0
2018-01-03T07:37:27.702Z,0
2018-01-03T07:38:27.692Z,0
2018-01-03T07:39:27.717Z,0
2018-01-03T07:40:27.691Z,0
2018-01-03T07:41:27.696Z,0
2018-01-03T07:42:27.701Z,0
2018-01-03T07:43:27.701Z,0
2018-01-03T07:44:27.696Z,0
2018-01-03T07:45:27.703Z,0
2018-01-03T07:46:27.701Z,0
2018-01-03T07:47:27.724Z,0
2018-01-03T07:48:27.706Z,0
2018-01-03T07:49:27.701Z,0
2018-01-03T07:50:27.713Z,0
2018-01-03T07:51:27.831Z,0
2018-01-03T07:52:27.711Z,0
2018-01-03T07:53:27.706Z,0
2018-01-03T07:54:27.715Z,0
2018-01-03T07:55:27.705Z,0
2018-01-03T07:56:27.703Z,0
2018-01-03T07:57:27.715Z,0
2018-01-03T07:58:27.710Z,0
2018-01-03T07:59:27.718Z,0
2018-01-03T08:00:27.718Z,0
2018-01-03T08:01:27.718Z,0
2018-01-03T08:02:27.732Z,0
2018-01-03T08:03:27.717Z,0
2018-01-03T08:04:27.712Z,0
2018-01-03T08:05:27.713Z,0
2018-01-03T08:06:27.717Z,0
2018-01-03T08:07:27.746Z,0
2018-01-03T08:08:27.722Z,0
2018-01-03T08:09:27.719Z,0
2018-01-03T08:10:27.771Z,0
2018-01-03T08:11:27.731Z,0
2018-01-03T08:12:27.746Z,0
2018-01-03T08:13:27.735Z,0
2018-01-03T08:14:27.724Z,0
2018-01-03T08:15:27.731Z,0
2018-01-03T08:16:27.732Z,0
2018-01-03T08:17:27.756Z,0
2018-01-03T08:18:27.739Z,0
2018-01-03T08:19:34.227Z,0
2018-01-03T08:20:27.732Z,0
2018-01-03T08:21:27.738Z,0
2018-01-03T08:22:27.749Z,0
2018-01-03T08:23:27.733Z,0
2018-01-03T08:24:27.730Z,0
2018-01-03T08:25:27.746Z,0
2018-01-03T08:26:27.750Z,0
2018-01-03T08:27:27.760Z,0
2018-01-03T08:28:27.738Z,0
2018-01-03T08:29:27.738Z,0
2018-01-03T08:30:27.745Z,0
2018-01-03T08:31:27.740Z,0
2018-01-03T08:32:27.759Z,0
2018-01-03T08:33:27.876Z,0
2018-01-03T08:34:27.733Z,0
2018-01-03T08:35:27.746Z,0
2018-01-03T08:36:27.779Z,0
2018-01-03T08:37:27.770Z,0
2018-01-03T08:38:27.749Z,0
2018-01-03T08:39:27.748Z,0
2018-01-03T08:40:27.758Z,0
2018-01-03T08:41:27.758Z,0
2018-01-03T08:42:28.110Z,0
2018-01-03T08:43:27.750Z,0
2018-01-03T08:44:27.754Z,0
2018-01-03T08:45:27.754Z,0
2018-01-03T08:46:27.753Z,0
2018-01-03T08:47:27.789Z,0
2018-01-03T08:48:27.757Z,0
2018-01-03T08:49:27.760Z,0
2018-01-03T08:50:27.775Z,0
2018-01-03T08:51:27.754Z,0
2018-01-03T08:52:27.787Z,0
2018-01-03T08:53:27.762Z,0
2018-01-03T08:54:27.764Z,0
2018-01-03T08:55:28.867Z,0
2018-01-03T08:56:27.771Z,0
2018-01-03T08:57:27.792Z,0
2018-01-03T08:58:27.772Z,0
2018-01-03T08:59:27.770Z,0
2018-01-03T09:00:27.771Z,0
2018-01-03T09:01:27.771Z,0
2018-01-03T09:02:27.789Z,0
2018-01-03T09:03:27.777Z,0
2018-01-03T09:04:27.779Z,0
2018-01-03T09:05:27.882Z,0
2018-01-03T09:06:27.774Z,0
2018-01-03T09:07:27.790Z,0
2018-01-03T09:08:27.778Z,0
2018-01-03T09:09:27.793Z,0
2018-01-03T09:10:27.779Z,0
2018-01-03T09:11:27.790Z,0
2018-01-03T09:12:27.801Z,0
2018-01-03T09:13:27.778Z,0
2018-01-03T09:14:27.788Z,0
2018-01-03T09:15:27.777Z,0
2018-01-03T09:16:27.780Z,0
2018-01-03T09:17:27.812Z,0
2018-01-03T09:18:27.785Z,0
2018-01-03T09:19:27.792Z,0
2018-01-03T09:20:27.828Z,0
2018-01-03T09:21:27.801Z,0
2018-01-03T09:22:27.812Z,0
2018-01-03T09:23:27.786Z,0
2018-01-03T09:24:27.799Z,0
2018-01-03T09:25:27.801Z,0
2018-01-03T09:26:27.788Z,0
2018-01-03T09:27:27.804Z,0
2018-01-03T09:28:27.794Z,0
2018-01-03T09:29:28.228Z,0
2018-01-03T09:30:27.801Z,0
2018-01-03T09:31:37.427Z,0
2018-01-03T09:32:27.813Z,0
2018-01-03T09:33:27.802Z,0
2018-01-03T09:34:27.796Z,0
2018-01-03T09:35:28.612Z,0
2018-01-03T09:36:27.806Z,0
2018-01-03T09:37:27.825Z,0
2018-01-03T09:38:27.808Z,0
2018-01-03T09:39:27.806Z,0
2018-01-03T09:40:27.810Z,0
2018-01-03T09:41:27.809Z,0
2018-01-03T09:42:27.848Z,0
2018-01-03T09:43:27.808Z,0
2018-01-03T09:44:27.807Z,0
2018-01-03T09:45:27.808Z,0
2018-01-03T09:46:27.805Z,0
2018-01-03T09:47:27.903Z,0
2018-01-03T09:48:29.560Z,0
2018-01-03T09:49:27.817Z,0
2018-01-03T09:50:27.828Z,0
2018-01-03T09:51:27.815Z,0
2018-01-03T09:52:27.831Z,0
2018-01-03T09:53:27.823Z,0
2018-01-03T09:54:27.819Z,0
2018-01-03T09:55:27.819Z,0
2018-01-03T09:56:27.826Z,0
2018-01-03T09:57:27.824Z,0
2018-01-03T09:58:27.832Z,0
2018-01-03T09:59:27.836Z,0
2018-01-03T10:00:27.827Z,0
2018-01-03T10:01:28.332Z,0
2018-01-03T10:02:28.483Z,0
2018-01-03T10:03:27.831Z,0
2018-01-03T10:04:27.830Z,0
2018-01-03T10:05:28.531Z,0
2018-01-03T10:06:27.845Z,0
2018-01-03T10:07:27.840Z,0
2018-01-03T10:08:27.849Z,0
2018-01-03T10:09:27.836Z,0
2018-01-03T10:10:27.843Z,0
2018-01-03T10:11:28.099Z,0
2018-01-03T10:12:27.853Z,0
2018-01-03T10:13:27.861Z,0
2018-01-03T10:14:27.835Z,0
2018-01-03T10:15:27.847Z,0
2018-01-03T10:16:28.015Z,0
2018-01-03T10:17:27.841Z,0
2018-01-03T10:18:27.881Z,0
2018-01-03T10:19:27.841Z,0
2018-01-03T10:20:27.846Z,0
2018-01-03T10:21:27.851Z,0
2018-01-03T10:22:27.847Z,0
2018-01-03T10:23:27.875Z,0
2018-01-03T10:24:27.845Z,0
2018-01-03T10:25:27.846Z,0
2018-01-03T10:26:27.850Z,0
2018-01-03T10:27:27.857Z,0
2018-01-03T10:28:27.871Z,0
2018-01-03T10:29:27.852Z,0
2018-01-03T10:30:27.847Z,0
2018-01-03T10:31:27.848Z,0
2018-01-03T10:32:28.018Z,0
2018-01-03T10:33:27.882Z,0
2018-01-03T10:34:27.854Z,0
2018-01-03T10:35:27.854Z,0
2018-01-03T10:36:27.863Z,0
2018-01-03T10:37:27.860Z,0
2018-01-03T10:38:27.885Z,0
2018-01-03T10:39:27.866Z,0
2018-01-03T10:40:27.860Z,0
2018-01-03T10:41:27.866Z,0
2018-01-03T10:42:27.881Z,0
2018-01-03T10:43:27.888Z,0
2018-01-03T10:44:27.875Z,0
2018-01-03T10:45:27.866Z,0
2018-01-03T10:46:27.874Z,0
2018-01-03T10:47:27.866Z,0
2018-01-03T10:48:27.894Z,0
2018-01-03T10:49:27.883Z,0
2018-01-03T10:50:27.876Z,0
2018-01-03T10:51:27.868Z,0
2018-01-03T10:52:27.880Z,0
2018-01-03T10:53:27.912Z,0
2018-01-03T10:54:27.876Z,0
2018-01-03T10:55:27.874Z,0
2018-01-03T10:56:27.879Z,0
2018-01-03T10:57:27.886Z,0
2018-01-03T10:58:28.016Z,0
2018-01-03T10:59:27.873Z,0
2018-01-03T11:00:27.878Z,0
2018-01-03T11:01:27.881Z,0
2018-01-03T11:02:27.880Z,0
2018-01-03T11:03:27.911Z,0
2018-01-03T11:04:27.893Z,0
2018-01-03T11:05:27.883Z,0
2018-01-03T11:06:27.978Z,0
2018-01-03T11:07:27.888Z,0
2018-01-03T11:08:27.921Z,0
2018-01-03T11:09:27.899Z,0
2018-01-03T11:10:27.888Z,0
2018-01-03T11:11:27.889Z,0
2018-01-03T11:12:27.887Z,0
2018-01-03T11:13:27.916Z,0
2018-01-03T11:14:27.898Z,0
2018-01-03T11:15:27.889Z,0
2018-01-03T11:16:27.893Z,0
2018-01-03T11:17:27.897Z,0
2018-01-03T11:18:27.921Z,0
2018-01-03T11:19:27.901Z,0
2018-01-03T11:20:27.903Z,0
2018-01-03T11:21:27.904Z,0
2018-01-03T11:22:27.894Z,0
2018-01-03T11:23:27.926Z,0
2018-01-03T11:24:27.903Z,0
2018-01-03T11:25:27.905Z,0
2018-01-03T11:26:27.921Z,0
2018-01-03T11:27:27.905Z,0
2018-01-03T11:28:27.929Z,0
2018-01-03T11:29:27.911Z,1
2018-01-03T11:30:27.912Z,1
2018-01-03T11:31:27.907Z,0
2018-01-03T11:32:27.910Z,1
2018-01-03T11:33:27.939Z,1
2018-01-03T11:34:27.921Z,1
2018-01-03T11:35:27.917Z,2
2018-01-03T11:36:27.911Z,2
2018-01-03T11:37:27.922Z,2
2018-01-03T11:38:27.940Z,2
2018-01-03T11:39:27.920Z,2
2018-01-03T11:40:27.919Z,2
2018-01-03T11:41:27.918Z,1
2018-01-03T11:42:27.917Z,1
2018-01-03T11:43:27.942Z,1
2018-01-03T11:44:27.924Z,1
2018-01-03T11:45:27.921Z,2
2018-01-03T11:46:27.927Z,2
2018-01-03T11:47:27.940Z,2
2018-01-03T11:48:28.052Z,2
2018-01-03T11:49:27.921Z,2
2018-01-03T11:50:27.928Z,2
2018-01-03T11:51:27.940Z,2
2018-01-03T11:52:27.925Z,1
2018-01-03T11:53:27.958Z,0
2018-01-03T11:54:27.945Z,0
2018-01-03T11:55:27.937Z,0
2018-01-03T11:56:27.943Z,0
2018-01-03T11:57:27.933Z,0
2018-01-03T11:58:27.967Z,0
2018-01-03T11:59:27.941Z,0
2018-01-03T12:00:27.942Z,0
2018-01-03T12:01:27.944Z,0
2018-01-03T12:02:28.000Z,0
2018-01-03T12:03:27.957Z,0
2018-01-03T12:04:27.941Z,0
2018-01-03T12:05:27.936Z,1
2018-01-03T12:06:27.953Z,0
2018-01-03T12:07:27.953Z,0
2018-01-03T12:08:27.941Z,0
2018-01-03T12:09:27.950Z,0
2018-01-03T12:10:27.955Z,0
2018-01-03T12:11:27.965Z,0
2018-01-03T12:12:27.942Z,0
2018-01-03T12:13:27.982Z,0
2018-01-03T12:14:27.949Z,0
2018-01-03T12:15:27.946Z,0
2018-01-03T12:16:27.950Z,0
2018-01-03T12:17:27.952Z,0
2018-01-03T12:18:27.959Z,0
2018-01-03T12:19:27.960Z,0
2018-01-03T12:20:27.959Z,0
2018-01-03T12:21:27.955Z,0
2018-01-03T12:22:27.960Z,0
2018-01-03T12:23:27.955Z,0
2018-01-03T12:24:27.983Z,0
2018-01-03T12:25:27.956Z,0
2018-01-03T12:26:27.961Z,0
2018-01-03T12:27:27.963Z,0
2018-01-03T12:28:27.964Z,0
2018-01-03T12:29:27.997Z,0
2018-01-03T12:30:27.967Z,0
2018-01-03T12:31:27.965Z,0
2018-01-03T12:32:27.963Z,0
2018-01-03T12:33:28.015Z,0
2018-01-03T12:34:27.991Z,0
2018-01-03T12:35:27.972Z,0
2018-01-03T12:36:27.976Z,0
2018-01-03T12:37:27.972Z,0
2018-01-03T12:38:27.983Z,0
2018-01-03T12:39:28.002Z,0
2018-01-03T12:40:27.988Z,0
2018-01-03T12:41:27.976Z,0
2018-01-03T12:42:27.979Z,0
2018-01-03T12:43:27.979Z,0
2018-01-03T12:44:27.995Z,0
2018-01-03T12:45:27.984Z,0
2018-01-03T12:46:27.975Z,0
2018-01-03T12:47:27.979Z,0
2018-01-03T12:48:27.978Z,0
2018-01-03T12:49:28.099Z,0
2018-01-03T12:50:28.296Z,0
2018-01-03T12:51:27.985Z,0
2018-01-03T12:52:27.998Z,0
2018-01-03T12:53:27.990Z,0
2018-01-03T12:54:28.182Z,0
2018-01-03T12:55:28.088Z,0
2018-01-03T12:56:27.990Z,0
2018-01-03T12:57:28.020Z,0
2018-01-03T12:58:27.986Z,0
2018-01-03T12:59:28.701Z,0
2018-01-03T13:00:27.990Z,0
2018-01-03T13:01:27.990Z,0
2018-01-03T13:02:27.989Z,0
2018-01-03T13:03:27.997Z,0
2018-01-03T13:04:28.017Z,0
2018-01-03T13:05:27.994Z,0
2018-01-03T13:06:28.001Z,0
2018-01-03T13:07:28.008Z,0
2018-01-03T13:08:28.008Z,0
2018-01-03T13:09:28.032Z,0
2018-01-03T13:10:28.005Z,0
2018-01-03T13:11:27.993Z,0
2018-01-03T13:12:28.004Z,0
2018-01-03T13:13:28.001Z,0
2018-01-03T13:14:28.025Z,0
2018-01-03T13:15:28.013Z,0
2018-01-03T13:16:28.003Z,0
2018-01-03T13:17:28.005Z,0
2018-01-03T13:18:28.006Z,0
2018-01-03T13:19:28.039Z,0
2018-01-03T13:20:28.018Z,0
2018-01-03T13:21:28.006Z,0
2018-01-03T13:22:28.016Z,0
2018-01-03T13:23:28.016Z,0
2018-01-03T13:24:28.040Z,0
2018-01-03T13:25:28.015Z,0
2018-01-03T13:26:28.016Z,0
2018-01-03T13:27:28.016Z,0
2018-01-03T13:28:28.043Z,0
2018-01-03T13:29:28.044Z,0
2018-01-03T13:30:28.026Z,0
2018-01-03T13:31:28.023Z,0
2018-01-03T13:32:28.021Z,0
2018-01-03T13:33:28.031Z,0
2018-01-03T13:34:28.050Z,0
2018-01-03T13:35:28.043Z,0
2018-01-03T13:36:28.033Z,0
2018-01-03T13:37:28.019Z,0
2018-01-03T13:38:28.026Z,0
2018-01-03T13:39:28.051Z,0
2018-01-03T13:40:28.026Z,0
2018-01-03T13:41:28.091Z,0
2018-01-03T13:42:28.036Z,0
2018-01-03T13:43:28.030Z,0
2018-01-03T13:44:28.059Z,0
2018-01-03T13:45:28.035Z,0
2018-01-03T13:46:28.033Z,0
2018-01-03T13:47:28.038Z,0
2018-01-03T13:48:28.333Z,0
2018-01-03T13:49:28.047Z,0
2018-01-03T13:50:28.049Z,0
2018-01-03T13:51:28.215Z,0
2018-01-03T13:52:28.040Z,0
2018-01-03T13:53:28.338Z,0
2018-01-03T13:54:28.049Z,0
2018-01-03T13:55:28.059Z,0
2018-01-03T13:56:28.061Z,0
2018-01-03T13:57:28.972Z,0
2018-01-03T13:58:28.185Z,0
2018-01-03T13:59:28.153Z,0
2018-01-03T14:00:28.096Z,0
2018-01-03T14:01:28.052Z,0
2018-01-03T14:02:28.052Z,0
2018-01-03T14:03:28.984Z,0
2018-01-03T14:04:28.075Z,0
2018-01-03T14:05:28.055Z,0
2018-01-03T14:06:28.054Z,0
2018-01-03T14:07:28.060Z,0
2018-01-03T14:08:28.104Z,0
2018-01-03T14:09:28.073Z,0
2018-01-03T14:10:28.059Z,0
2018-01-03T14:11:28.056Z,0
2018-01-03T14:12:28.067Z,0
2018-01-03T14:13:28.076Z,0
2018-01-03T14:14:28.091Z,0
2018-01-03T14:15:28.081Z,0
2018-01-03T14:16:28.061Z,0
2018-01-03T14:17:28.060Z,0
2018-01-03T14:18:28.058Z,0
2018-01-03T14:19:28.087Z,0
2018-01-03T14:20:28.080Z,0
2018-01-03T14:21:28.078Z,0
2018-01-03T14:22:28.069Z,0
2018-01-03T14:23:28.077Z,0
2018-01-03T14:24:28.091Z,0
2018-01-03T14:25:28.076Z,0
2018-01-03T14:26:28.068Z,0
2018-01-03T14:27:28.078Z,0
2018-01-03T14:28:28.074Z,0
2018-01-03T14:29:28.106Z,0
2018-01-03T14:30:28.081Z,0
2018-01-03T14:31:28.077Z,0
2018-01-03T14:32:28.085Z,0
2018-01-03T14:33:28.138Z,0
2018-01-03T14:34:28.127Z,0
2018-01-03T14:35:28.075Z,0
2018-01-03T14:36:28.086Z,0
2018-01-03T14:37:28.108Z,0
2018-01-03T14:38:28.129Z,0
2018-01-03T14:39:28.103Z,0
2018-01-03T14:40:28.233Z,0
2018-01-03T14:41:28.084Z,0
2018-01-03T14:42:28.085Z,0
2018-01-03T14:43:28.090Z,0
2018-01-03T14:44:28.087Z,0
2018-01-03T14:45:28.122Z,0
2018-01-03T14:46:48.262Z,0
2018-01-03T14:47:28.097Z,0